Time;durP1;ratioP1;P1;durP2;ratioP2;P2;SDS_P1;SDS_P2;PMS_P1;PMS_P2;Temp;Humidity;BMP_temperature;BMP_pressure;BME280_temperature;BME280_humidity;BME280_pressure;Samples;Min_cycle;Max_cycle;Signal;HPM_P1;HPM_P2
2021/01/09 00:01:22;;;;;;;25.93;19.30;;;1.30;83.10;;;;;;5057682;28;21113;-77
2021/01/09 00:03:54;;;;;;;27.17;20.13;;;1.30;83.70;;;;;;5051796;28;20527;-77
2021/01/09 00:06:20;;;;;;;26.70;18.90;;;1.30;83.60;;;;;;5044872;28;20464;-77
2021/01/09 00:08:47;;;;;;;25.40;18.20;;;1.30;82.90;;;;;;5049382;28;20587;-78
2021/01/09 00:11:14;;;;;;;31.13;20.17;;;1.30;83.00;;;;;;5048974;28;20855;-77
2021/01/09 00:13:40;;;;;;;25.30;18.47;;;1.30;83.30;;;;;;5047343;28;21027;-78
2021/01/09 00:16:08;;;;;;;25.13;17.87;;;1.30;83.90;;;;;;5046984;28;20446;-77
2021/01/09 00:18:35;;;;;;;27.20;19.60;;;1.20;85.90;;;;;;5051944;28;20527;-78
2021/01/09 00:21:01;;;;;;;29.60;21.47;;;1.10;89.00;;;;;;5049985;28;20462;-77
2021/01/09 00:23:28;;;;;;;26.43;18.30;;;1.00;90.30;;;;;;5052540;28;20474;-77
2021/01/09 00:25:54;;;;;;;28.23;19.13;;;1.00;90.80;;;;;;5051300;28;20452;-77
2021/01/09 00:28:21;;;;;;;32.17;21.37;;;1.00;91.40;;;;;;5052592;28;20457;-78
2021/01/09 00:30:47;;;;;;;29.57;20.47;;;1.00;91.90;;;;;;5046817;28;20487;-77
2021/01/09 00:33:15;;;;;;;37.10;22.30;;;1.00;91.80;;;;;;5051385;28;20484;-77
2021/01/09 00:35:42;;;;;;;31.17;21.47;;;1.00;91.90;;;;;;5045764;28;20451;-77
2021/01/09 00:38:11;;;;;;;31.80;21.17;;;1.00;91.70;;;;;;5053140;28;20454;-77
2021/01/09 00:40:37;;;;;;;30.63;21.80;;;1.00;91.80;;;;;;5051442;28;20445;-78
2021/01/09 00:43:03;;;;;;;35.63;22.00;;;1.00;91.70;;;;;;5051638;28;20447;-77
2021/01/09 00:45:30;;;;;;;34.47;21.67;;;0.90;91.60;;;;;;5050507;28;20673;-77
2021/01/09 00:47:57;;;;;;;31.37;19.80;;;0.90;92.00;;;;;;5050729;28;20462;-77
2021/01/09 00:50:27;;;;;;;33.27;23.23;;;0.90;91.80;;;;;;5054039;28;20492;-78
2021/01/09 00:52:53;;;;;;;33.97;22.00;;;0.90;91.30;;;;;;5058496;28;20982;-77
2021/01/09 00:55:20;;;;;;;31.63;22.20;;;0.90;91.60;;;;;;5048878;28;20457;-78
2021/01/09 00:57:46;;;;;;;32.03;21.73;;;0.90;91.70;;;;;;5053514;28;20455;-77
2021/01/09 01:00:14;;;;;;;31.40;21.87;;;0.90;92.70;;;;;;5049163;28;20443;-78
2021/01/09 01:02:40;;;;;;;29.77;20.80;;;0.90;92.40;;;;;;5051174;28;20536;-77
2021/01/09 01:05:09;;;;;;;38.77;24.00;;;0.90;92.10;;;;;;5051865;28;20457;-77
2021/01/09 01:07:36;;;;;;;35.03;22.20;;;0.90;91.80;;;;;;5051462;28;20466;-77
2021/01/09 01:10:04;;;;;;;36.53;21.90;;;0.90;91.80;;;;;;5051714;28;20441;-77
2021/01/09 01:12:30;;;;;;;33.00;21.97;;;0.90;91.50;;;;;;5051802;28;20488;-77
2021/01/09 01:14:57;;;;;;;34.87;21.87;;;0.90;91.30;;;;;;5054248;28;20461;-76
2021/01/09 01:17:23;;;;;;;35.10;22.43;;;0.90;91.20;;;;;;5066712;28;20450;-79
2021/01/09 01:19:50;;;;;;;33.60;21.33;;;0.90;90.90;;;;;;5061283;28;20490;-79
2021/01/09 01:22:18;;;;;;;34.87;22.57;;;0.90;90.90;;;;;;5053463;28;20466;-79
2021/01/09 01:24:46;;;;;;;31.40;21.63;;;0.90;90.80;;;;;;5052676;28;20450;-79
2021/01/09 01:27:12;;;;;;;32.20;22.20;;;0.80;91.40;;;;;;5050915;28;20450;-79
2021/01/09 01:29:39;;;;;;;31.97;21.60;;;0.80;90.90;;;;;;5057591;28;20449;-79
2021/01/09 01:32:06;;;;;;;37.53;23.10;;;0.80;91.00;;;;;;5057889;28;20467;-81
2021/01/09 01:34:34;;;;;;;33.93;21.17;;;0.80;90.80;;;;;;5052761;28;20458;-79
2021/01/09 01:37:00;;;;;;;31.30;21.67;;;0.80;91.10;;;;;;5058793;28;20445;-80
2021/01/09 01:39:27;;;;;;;32.13;21.37;;;0.80;91.10;;;;;;5050080;28;20505;-79
2021/01/09 01:41:57;;;;;;;33.03;23.03;;;0.70;91.00;;;;;;5053984;28;20449;-79
2021/01/09 01:44:23;;;;;;;35.53;23.57;;;0.70;91.50;;;;;;5056599;28;20459;-78
2021/01/09 01:46:50;;;;;;;33.93;22.20;;;0.70;91.60;;;;;;5050638;28;20509;-79
2021/01/09 01:49:17;;;;;;;35.07;22.80;;;0.70;91.60;;;;;;5053839;28;21058;-79
2021/01/09 01:51:44;;;;;;;30.93;21.23;;;0.70;91.80;;;;;;5067144;28;20451;-79
2021/01/09 01:54:13;;;;;;;36.53;23.57;;;0.70;91.50;;;;;;5052362;28;20985;-80
2021/01/09 01:56:41;;;;;;;34.90;22.90;;;0.70;91.30;;;;;;5049216;28;20456;-79
2021/01/09 01:59:08;;;;;;;34.50;22.70;;;0.80;91.20;;;;;;5056226;28;20471;-80
2021/01/09 02:01:39;;;;;;;35.97;23.57;;;0.70;91.50;;;;;;5057369;28;20445;-79
2021/01/09 02:04:08;;;;;;;35.77;23.10;;;0.70;91.50;;;;;;5049399;28;20466;-79
2021/01/09 02:06:36;;;;;;;34.10;22.87;;;0.70;91.60;;;;;;5054649;28;20443;-79
2021/01/09 02:09:06;;;;;;;32.30;22.10;;;0.60;91.50;;;;;;5048365;28;20510;-79
2021/01/09 02:11:37;;;;;;;32.67;22.13;;;0.70;91.70;;;;;;5055971;28;21192;-82
2021/01/09 02:14:08;;;;;;;31.00;21.47;;;0.70;91.80;;;;;;5055784;28;21272;-79
2021/01/09 02:16:36;;;;;;;31.33;22.23;;;0.70;92.00;;;;;;5068284;28;20449;-78
2021/01/09 02:19:07;;;;;;;29.87;20.87;;;0.70;91.90;;;;;;5060558;28;20467;-79
2021/01/09 02:21:38;;;;;;;30.23;20.80;;;0.70;91.80;;;;;;5049701;28;20482;-79
2021/01/09 02:24:12;;;;;;;31.90;21.90;;;0.70;91.60;;;;;;5048607;28;21052;-79
2021/01/09 02:26:39;;;;;;;34.67;22.57;;;0.70;91.50;;;;;;5048739;28;20470;-79
2021/01/09 02:29:05;;;;;;;36.17;22.40;;;0.70;92.00;;;;;;5052007;28;20495;-79
2021/01/09 02:31:35;;;;;;;38.03;23.30;;;0.70;91.90;;;;;;5049461;28;20456;-79
2021/01/09 02:34:05;;;;;;;35.20;23.37;;;0.70;91.40;;;;;;5049333;28;20483;-80
2021/01/09 02:36:32;;;;;;;33.57;21.90;;;0.80;91.50;;;;;;5053130;28;20453;-79
2021/01/09 02:38:59;;;;;;;35.00;22.77;;;0.80;90.90;;;;;;5050954;28;20448;-79
2021/01/09 02:41:28;;;;;;;32.67;21.63;;;0.80;90.60;;;;;;5054864;28;20873;-79
2021/01/09 02:44:05;;;;;;;32.00;19.63;;;0.80;90.40;;;;;;5050890;28;20516;-80
2021/01/09 02:46:32;;;;;;;31.53;20.70;;;0.90;90.40;;;;;;5047539;28;20538;-81
2021/01/09 02:48:58;;;;;;;32.23;21.37;;;0.80;90.60;;;;;;5051017;28;20446;-79
2021/01/09 02:51:28;;;;;;;30.73;20.60;;;0.80;90.80;;;;;;5050221;28;20462;-79
2021/01/09 02:53:55;;;;;;;30.10;20.30;;;0.80;90.90;;;;;;5052183;28;21350;-79
2021/01/09 02:56:21;;;;;;;29.90;21.20;;;0.80;91.00;;;;;;5051857;28;20465;-80
2021/01/09 02:58:48;;;;;;;31.23;20.33;;;0.80;91.10;;;;;;5055004;28;20534;-79
2021/01/09 03:01:15;;;;;;;28.33;19.90;;;0.80;91.00;;;;;;5048749;28;20540;-79
2021/01/09 03:03:41;;;;;;;31.00;20.57;;;0.90;91.40;;;;;;5044699;28;20456;-79
2021/01/09 03:06:10;;;;;;;32.97;21.90;;;0.90;91.40;;;;;;5046985;28;21016;-80
2021/01/09 03:08:36;;;;;;;29.30;20.90;;;0.80;91.40;;;;;;5051221;28;20450;-79
2021/01/09 03:11:03;;;;;;;34.70;21.77;;;0.70;91.30;;;;;;5054887;28;20480;-79
2021/01/09 03:13:29;;;;;;;31.27;20.00;;;0.70;91.70;;;;;;5056953;28;20513;-79
2021/01/09 03:15:56;;;;;;;32.17;22.57;;;0.70;91.90;;;;;;5065505;28;20442;-80
2021/01/09 03:18:23;;;;;;;29.77;19.90;;;0.60;92.20;;;;;;5049624;28;20556;-78
2021/01/09 03:20:49;;;;;;;30.90;20.93;;;0.60;92.20;;;;;;5055662;28;20963;-79
2021/01/09 03:23:15;;;;;;;28.40;19.93;;;0.60;91.70;;;;;;5034304;28;20541;-79
2021/01/09 03:25:42;;;;;;;31.97;21.63;;;0.50;92.10;;;;;;5051538;28;20492;-79
2021/01/09 03:28:08;;;;;;;31.00;22.23;;;0.60;92.40;;;;;;5055506;28;20452;-77
2021/01/09 03:30:35;;;;;;;29.70;19.17;;;0.60;92.50;;;;;;5049901;28;20505;-78
2021/01/09 03:33:05;;;;;;;32.07;21.93;;;0.60;92.40;;;;;;5059302;28;20531;-79
2021/01/09 03:35:31;;;;;;;31.50;21.90;;;0.60;92.70;;;;;;5057279;28;20479;-78
2021/01/09 03:37:58;;;;;;;32.20;21.70;;;0.60;92.80;;;;;;5054177;28;20457;-79
2021/01/09 03:40:24;;;;;;;32.13;20.10;;;0.60;92.20;;;;;;5052354;28;20532;-78
2021/01/09 03:42:52;;;;;;;34.00;21.70;;;0.60;92.50;;;;;;5052198;28;20540;-78
2021/01/09 03:45:18;;;;;;;36.10;22.87;;;0.60;92.40;;;;;;5054288;28;20782;-78
2021/01/09 03:47:45;;;;;;;30.77;21.30;;;0.60;92.40;;;;;;5055722;28;20443;-79
2021/01/09 03:50:12;;;;;;;30.57;20.40;;;0.50;92.50;;;;;;5064314;28;20453;-78
2021/01/09 03:52:38;;;;;;;29.07;20.20;;;0.60;92.50;;;;;;5050609;28;20567;-78
2021/01/09 03:55:06;;;;;;;32.47;20.90;;;0.60;92.20;;;;;;5055593;28;21407;-78
2021/01/09 03:57:33;;;;;;;29.80;19.60;;;0.60;92.10;;;;;;5056893;28;20519;-78
2021/01/09 04:00:00;;;;;;;33.80;20.53;;;0.60;92.20;;;;;;5050778;28;20462;-77
2021/01/09 04:02:26;;;;;;;26.73;20.00;;;0.50;92.30;;;;;;5062308;28;20482;-80
2021/01/09 04:04:55;;;;;;;31.00;20.83;;;0.50;92.50;;;;;;5059841;28;20457;-78
2021/01/09 04:07:23;;;;;;;32.07;20.27;;;0.50;92.60;;;;;;5061356;28;20448;-78
2021/01/09 04:09:49;;;;;;;29.93;19.93;;;0.50;92.60;;;;;;5060157;28;20861;-78
2021/01/09 04:12:16;;;;;;;29.80;20.40;;;0.50;92.60;;;;;;5069010;28;20476;-79
2021/01/09 04:14:42;;;;;;;29.27;20.67;;;0.50;92.70;;;;;;5066447;28;20507;-79
2021/01/09 04:17:08;;;;;;;30.90;20.70;;;0.50;92.20;;;;;;5067435;28;20499;-78
2021/01/09 04:19:35;;;;;;;31.50;20.80;;;0.50;92.30;;;;;;5057176;28;20459;-78
2021/01/09 04:22:02;;;;;;;32.00;20.53;;;0.50;92.80;;;;;;5055654;28;20447;-79
2021/01/09 04:24:29;;;;;;;37.53;23.70;;;0.40;93.30;;;;;;5056172;28;20475;-78
2021/01/09 04:26:57;;;;;;;30.60;20.50;;;0.40;93.80;;;;;;5054695;28;20456;-80
2021/01/09 04:29:24;;;;;;;26.30;19.13;;;0.40;94.00;;;;;;5053704;28;20806;-79
2021/01/09 04:31:52;;;;;;;29.07;20.10;;;0.40;93.80;;;;;;5052691;28;20508;-79
2021/01/09 04:34:19;;;;;;;26.73;19.80;;;0.40;94.30;;;;;;5056703;28;20503;-79
2021/01/09 04:36:46;;;;;;;27.77;19.43;;;0.50;94.70;;;;;;5052572;28;20539;-79
2021/01/09 04:39:13;;;;;;;30.77;19.57;;;0.40;95.00;;;;;;5047370;28;20438;-79
2021/01/09 04:41:41;;;;;;;32.30;19.53;;;0.40;94.70;;;;;;5052626;28;20465;-78
2021/01/09 04:44:09;;;;;;;28.20;19.30;;;0.50;95.00;;;;;;5052553;28;20480;-79
2021/01/09 04:46:43;;;;;;;29.57;19.20;;;0.50;95.00;;;;;;5048374;28;20506;-78
2021/01/09 04:49:10;;;;;;;28.77;20.33;;;0.50;95.20;;;;;;5054080;28;20541;-78
2021/01/09 04:51:38;;;;;;;28.77;19.53;;;0.50;95.70;;;;;;5053784;28;20469;-79
2021/01/09 04:54:08;;;;;;;31.00;19.93;;;0.40;95.50;;;;;;5056666;28;20567;-79
2021/01/09 04:56:45;;;;;;;29.33;19.17;;;0.40;96.10;;;;;;5055433;28;20486;-79
2021/01/09 04:59:13;;;;;;;28.10;19.00;;;0.50;95.80;;;;;;5053902;28;20499;-77
2021/01/09 05:01:41;;;;;;;28.30;19.30;;;0.50;95.50;;;;;;5053723;28;20470;-78
2021/01/09 05:04:08;;;;;;;30.97;19.53;;;0.50;95.00;;;;;;5056619;28;20447;-79
2021/01/09 05:06:34;;;;;;;28.60;18.63;;;0.50;95.30;;;;;;5055718;28;20964;-78
2021/01/09 05:09:00;;;;;;;25.37;18.67;;;0.50;94.60;;;;;;5058347;28;20460;-79
2021/01/09 05:11:31;;;;;;;27.83;18.97;;;0.50;94.30;;;;;;5068940;28;20469;-80
2021/01/09 05:13:59;;;;;;;32.63;19.83;;;0.50;94.50;;;;;;5075397;28;20479;-80
2021/01/09 05:16:26;;;;;;;29.50;18.97;;;0.50;94.40;;;;;;5065100;28;20452;-79
2021/01/09 05:18:53;;;;;;;27.33;18.77;;;0.40;95.50;;;;;;5053308;28;20485;-78
2021/01/09 05:21:20;;;;;;;31.70;20.33;;;0.40;96.10;;;;;;5052076;28;20958;-79
2021/01/09 05:23:53;;;;;;;29.30;19.73;;;0.40;95.80;;;;;;5063602;28;20524;-81
2021/01/09 05:26:20;;;;;;;32.33;20.00;;;0.40;96.00;;;;;;5064546;28;20942;-79
2021/01/09 05:28:51;;;;;;;36.13;21.00;;;0.40;96.20;;;;;;5063105;28;20476;-78
2021/01/09 05:31:19;;;;;;;29.80;20.60;;;0.40;96.40;;;;;;5056868;28;20479;-79
2021/01/09 05:33:48;;;;;;;27.33;18.93;;;0.50;96.30;;;;;;5050383;28;20492;-79
2021/01/09 05:36:18;;;;;;;27.73;19.83;;;0.50;96.40;;;;;;5051468;28;20467;-79
2021/01/09 05:38:46;;;;;;;29.97;19.90;;;0.50;95.80;;;;;;5053678;28;20456;-79
2021/01/09 05:41:14;;;;;;;26.47;18.90;;;0.60;95.80;;;;;;5054910;28;20491;-79
2021/01/09 05:43:41;;;;;;;27.70;19.20;;;0.50;95.20;;;;;;5052778;28;20456;-79
2021/01/09 05:46:08;;;;;;;29.10;20.00;;;0.50;95.10;;;;;;5054245;28;20451;-79
2021/01/09 05:48:36;;;;;;;27.40;19.47;;;0.50;94.80;;;;;;5053908;28;20483;-79
2021/01/09 05:51:06;;;;;;;32.67;20.67;;;0.40;94.80;;;;;;5047678;28;20444;-79
2021/01/09 05:53:36;;;;;;;29.87;19.70;;;0.40;94.90;;;;;;5052511;28;20474;-79
2021/01/09 05:56:03;;;;;;;30.00;20.17;;;0.40;94.70;;;;;;5050195;28;20501;-79
2021/01/09 05:58:30;;;;;;;32.33;20.30;;;0.40;95.60;;;;;;5054571;28;20976;-79
2021/01/09 06:00:58;;;;;;;27.17;18.90;;;0.40;95.40;;;;;;5055709;28;20465;-79
2021/01/09 06:03:43;;;;;;;33.00;20.90;;;0.40;95.50;;;;;;5056224;28;20457;-79
2021/01/09 06:06:45;;;;;;;30.40;18.90;;;0.40;94.50;;;;;;5048697;28;20451;-81
2021/01/09 06:09:19;;;;;;;28.67;18.77;;;0.30;95.00;;;;;;5012218;28;20476;-79
2021/01/09 06:11:48;;;;;;;34.60;19.67;;;0.30;94.90;;;;;;5056238;28;20808;-80
2021/01/09 06:14:15;;;;;;;28.63;18.00;;;0.30;95.20;;;;;;5061677;28;22002;-79
2021/01/09 06:16:43;;;;;;;30.77;19.70;;;0.30;95.60;;;;;;5064955;28;20947;-79
2021/01/09 06:19:11;;;;;;;32.30;19.93;;;0.30;95.20;;;;;;5053059;28;20453;-79
2021/01/09 06:21:38;;;;;;;31.80;20.87;;;0.30;95.60;;;;;;5052406;28;20473;-79
2021/01/09 06:24:05;;;;;;;32.13;21.17;;;0.30;96.20;;;;;;5049793;28;20452;-78
2021/01/09 06:26:33;;;;;;;28.00;19.50;;;0.30;95.80;;;;;;5047678;28;21320;-78
2021/01/09 06:29:01;;;;;;;29.53;19.30;;;0.30;95.70;;;;;;5053538;28;21059;-80
2021/01/09 06:31:29;;;;;;;30.07;18.40;;;0.30;95.30;;;;;;5053261;28;20546;-79
2021/01/09 06:33:56;;;;;;;27.90;20.00;;;0.30;95.50;;;;;;5054546;28;20479;-80
2021/01/09 06:36:25;;;;;;;28.07;18.40;;;0.20;96.40;;;;;;5044755;28;20835;-79
2021/01/09 06:38:58;;;;;;;27.57;17.40;;;0.20;97.20;;;;;;5051913;28;20478;-79
2021/01/09 06:41:33;;;;;;;31.40;19.57;;;0.20;97.50;;;;;;5045990;28;21007;-79
2021/01/09 06:44:07;;;;;;;28.03;18.30;;;0.20;96.20;;;;;;5057389;28;20491;-81
2021/01/09 06:46:35;;;;;;;28.17;18.50;;;0.20;94.60;;;;;;5053470;28;21169;-79
2021/01/09 06:49:03;;;;;;;28.87;19.53;;;0.20;94.90;;;;;;5053430;28;20540;-78
2021/01/09 06:51:41;;;;;;;29.90;18.90;;;0.20;95.00;;;;;;5051982;28;20957;-78
2021/01/09 06:54:27;;;;;;;26.87;18.67;;;0.30;95.30;;;;;;5059535;28;20511;-77
2021/01/09 06:57:24;;;;;;;29.20;18.77;;;0.30;94.20;;;;;;5049439;28;20538;-78
2021/01/09 06:59:51;;;;;;;27.43;18.10;;;0.30;94.50;;;;;;4973775;28;20993;-79
2021/01/09 07:02:21;;;;;;;31.47;19.20;;;0.30;95.10;;;;;;5042481;28;20577;-79
2021/01/09 07:05:05;;;;;;;27.63;17.90;;;0.30;95.30;;;;;;5068195;28;20539;-80
2021/01/09 07:07:38;;;;;;;28.80;18.80;;;0.20;94.70;;;;;;5055933;28;20540;-79
2021/01/09 07:10:07;;;;;;;26.60;17.30;;;0.10;94.90;;;;;;5060662;28;20451;-79
2021/01/09 07:12:35;;;;;;;32.60;19.10;;;0.10;95.60;;;;;;5064665;28;20481;-79
2021/01/09 07:15:08;;;;;;;28.67;18.27;;;-0.10;97.10;;;;;;5060829;28;20813;-78
2021/01/09 07:17:36;;;;;;;29.10;19.27;;;-0.10;99.50;;;;;;5057366;28;20464;-79
2021/01/09 07:20:05;;;;;;;31.43;18.77;;;-0.10;99.90;;;;;;5060757;28;20471;-79
2021/01/09 07:22:32;;;;;;;32.23;20.10;;;-0.10;99.90;;;;;;5061978;28;20482;-79
2021/01/09 07:25:01;;;;;;;32.67;20.87;;;-0.10;99.90;;;;;;5055488;28;20957;-81
2021/01/09 07:27:35;;;;;;;29.70;19.17;;;0.00;99.90;;;;;;5053017;28;20475;-80
2021/01/09 07:30:11;;;;;;;31.93;19.30;;;0.10;99.90;;;;;;5052383;28;20786;-79
2021/01/09 07:32:49;;;;;;;32.20;19.13;;;0.10;99.00;;;;;;5053087;28;20466;-78
2021/01/09 07:35:21;;;;;;;30.90;20.07;;;0.20;97.10;;;;;;5050601;28;20444;-78
2021/01/09 07:37:50;;;;;;;33.57;19.87;;;0.20;96.60;;;;;;5047885;28;20957;-79
2021/01/09 07:40:19;;;;;;;29.27;17.60;;;0.20;95.30;;;;;;5056058;28;20450;-80
2021/01/09 07:42:47;;;;;;;32.40;20.10;;;0.20;94.30;;;;;;5056570;28;20883;-80
2021/01/09 07:45:18;;;;;;;29.10;18.00;;;0.10;95.00;;;;;;5057934;28;21528;-78
2021/01/09 07:47:46;;;;;;;33.50;19.77;;;0.10;94.20;;;;;;5051375;28;20460;-78
2021/01/09 07:50:16;;;;;;;32.00;19.33;;;0.20;94.20;;;;;;5053687;28;20478;-78
2021/01/09 07:52:42;;;;;;;30.60;18.30;;;0.20;93.90;;;;;;5051196;28;20461;-78
2021/01/09 07:55:14;;;;;;;31.33;20.23;;;0.30;93.60;;;;;;5052347;28;20537;-78
2021/01/09 07:57:42;;;;;;;23.97;16.40;;;0.30;93.30;;;;;;5053194;28;20495;-79
2021/01/09 08:00:13;;;;;;;25.00;16.60;;;0.30;89.10;;;;;;5052523;28;20444;-79
2021/01/09 08:02:41;;;;;;;24.43;16.03;;;0.20;88.40;;;;;;5055861;28;20478;-79
2021/01/09 08:05:12;;;;;;;20.60;13.67;;;0.20;88.20;;;;;;5054204;28;20541;-79
2021/01/09 08:07:40;;;;;;;15.50;10.77;;;0.20;85.30;;;;;;5059895;28;20467;-80
2021/01/09 08:10:21;;;;;;;19.47;13.40;;;0.00;83.80;;;;;;5073819;28;20440;-81
2021/01/09 08:12:54;;;;;;;20.50;13.80;;;-0.10;83.90;;;;;;5072638;28;20473;-79
2021/01/09 08:15:21;;;;;;;21.73;13.57;;;-0.20;85.70;;;;;;5051341;28;20484;-80
2021/01/09 08:17:47;;;;;;;20.83;13.27;;;-0.30;87.30;;;;;;5061142;28;20461;-82
2021/01/09 08:20:15;;;;;;;21.30;13.60;;;-0.30;88.30;;;;;;5057136;28;20482;-79
2021/01/09 08:22:50;;;;;;;18.70;13.20;;;-0.40;88.00;;;;;;5064417;28;20453;-79
2021/01/09 08:25:16;;;;;;;22.20;15.20;;;-0.50;88.30;;;;;;5059428;28;20548;-79
2021/01/09 08:27:45;;;;;;;19.70;13.30;;;-0.50;89.10;;;;;;5057104;28;20469;-80
2021/01/09 08:30:18;;;;;;;23.80;15.63;;;-0.60;89.10;;;;;;5056059;28;20488;-79
2021/01/09 08:32:45;;;;;;;24.10;14.93;;;-0.50;90.60;;;;;;5059590;28;21147;-78
2021/01/09 08:35:15;;;;;;;22.30;14.23;;;-0.50;90.80;;;;;;5053102;28;20457;-79
2021/01/09 08:37:45;;;;;;;20.83;14.93;;;-0.50;90.70;;;;;;5051718;28;21165;-78
2021/01/09 08:40:17;;;;;;;23.93;15.40;;;-0.50;90.70;;;;;;5053889;28;20462;-76
2021/01/09 08:43:01;;;;;;;19.53;14.00;;;-0.50;90.60;;;;;;5054369;28;20540;-79
2021/01/09 08:45:54;;;;;;;22.57;15.40;;;-0.50;90.50;;;;;;5049556;28;20601;-78
2021/01/09 08:48:23;;;;;;;22.97;15.10;;;-0.40;90.50;;;;;;5050535;28;20518;-78
2021/01/09 08:51:01;;;;;;;24.43;14.70;;;-0.30;90.20;;;;;;5055258;28;20490;-79
2021/01/09 08:53:38;;;;;;;19.73;14.50;;;-0.20;89.70;;;;;;5055954;28;20545;-80
2021/01/09 08:56:07;;;;;;;21.70;13.90;;;-0.10;90.00;;;;;;5064618;28;20879;-82
2021/01/09 08:58:34;;;;;;;22.20;14.40;;;0.10;88.10;;;;;;5062021;28;20446;-80
2021/01/09 09:01:04;;;;;;;23.30;14.37;;;0.20;85.60;;;;;;5066968;28;20459;-79
2021/01/09 09:03:33;;;;;;;22.73;14.80;;;0.10;86.70;;;;;;5063207;28;20452;-80
2021/01/09 09:06:06;;;;;;;21.90;14.17;;;0.20;86.10;;;;;;5055354;28;20451;-80
2021/01/09 09:08:36;;;;;;;21.83;15.13;;;0.20;86.40;;;;;;5052396;28;20464;-77
2021/01/09 09:11:12;;;;;;;20.60;13.97;;;0.10;86.00;;;;;;5048683;28;20544;-76
2021/01/09 09:13:38;;;;;;;22.63;14.67;;;0.30;85.80;;;;;;5051303;28;20471;-78
2021/01/09 09:16:27;;;;;;;17.93;13.60;;;0.30;84.80;;;;;;5051556;28;20715;-77
2021/01/09 09:18:53;;;;;;;20.80;12.83;;;0.30;84.40;;;;;;5042166;28;20457;-76
2021/01/09 09:21:19;;;;;;;22.37;15.77;;;0.40;83.10;;;;;;5048832;28;20451;-76
2021/01/09 09:23:59;;;;;;;22.47;14.23;;;0.40;83.10;;;;;;5049491;28;20985;-76
2021/01/09 09:26:31;;;;;;;20.17;14.10;;;0.60;81.30;;;;;;5053850;28;20459;-77
2021/01/09 09:28:59;;;;;;;18.33;13.20;;;0.50;79.80;;;;;;5054981;28;20439;-78
2021/01/09 09:31:31;;;;;;;18.83;13.30;;;0.50;79.50;;;;;;5047547;28;20591;-78
2021/01/09 09:34:09;;;;;;;16.73;12.07;;;0.40;78.80;;;;;;5051639;28;20527;-78
2021/01/09 09:36:40;;;;;;;19.37;13.77;;;0.50;78.00;;;;;;5053861;28;20439;-78
2021/01/09 09:39:17;;;;;;;17.27;12.53;;;0.70;77.50;;;;;;5049545;28;20875;-77
2021/01/09 09:41:51;;;;;;;14.97;11.77;;;0.80;77.30;;;;;;5044935;28;20447;-77
2021/01/09 09:44:18;;;;;;;13.57;10.30;;;0.80;76.30;;;;;;5045291;28;20477;-77
2021/01/09 09:46:48;;;;;;;11.77;9.30;;;0.90;75.40;;;;;;5043829;28;20457;-76
2021/01/09 09:49:16;;;;;;;12.40;9.57;;;1.10;74.00;;;;;;5046978;28;20462;-76
2021/01/09 09:51:43;;;;;;;11.93;9.67;;;1.20;72.90;;;;;;5048322;28;20444;-76
2021/01/09 09:54:10;;;;;;;14.30;10.60;;;1.50;72.80;;;;;;5049930;28;20468;-77
2021/01/09 09:56:37;;;;;;;17.60;12.57;;;1.60;72.70;;;;;;5044538;28;20447;-76
2021/01/09 09:59:07;;;;;;;12.40;9.67;;;1.40;71.90;;;;;;5045153;28;20463;-76
2021/01/09 10:01:34;;;;;;;14.23;10.67;;;1.30;71.70;;;;;;5050605;28;20458;-78
2021/01/09 10:04:02;;;;;;;10.23;8.27;;;1.10;71.70;;;;;;5046846;28;20503;-76
2021/01/09 10:06:36;;;;;;;11.30;8.60;;;0.90;71.50;;;;;;5047467;28;20925;-77
2021/01/09 10:09:13;;;;;;;10.90;8.67;;;0.50;71.50;;;;;;5040996;28;20459;-77
2021/01/09 10:11:40;;;;;;;12.00;8.80;;;0.60;72.30;;;;;;5046636;28;20516;-76
2021/01/09 10:14:09;;;;;;;10.63;8.27;;;0.60;72.00;;;;;;5049899;28;20501;-75
2021/01/09 10:16:36;;;;;;;10.33;7.53;;;0.80;71.60;;;;;;5049182;28;20469;-77
2021/01/09 10:19:04;;;;;;;11.17;8.37;;;1.00;70.80;;;;;;5048309;28;20466;-77
2021/01/09 10:21:33;;;;;;;10.60;8.23;;;1.20;70.70;;;;;;5054385;28;20455;-76
2021/01/09 10:24:02;;;;;;;12.07;8.10;;;1.20;70.40;;;;;;5056812;28;20513;-77
2021/01/09 10:26:29;;;;;;;10.37;7.63;;;1.20;70.30;;;;;;5049177;28;20450;-76
2021/01/09 10:28:56;;;;;;;9.20;7.37;;;1.10;70.00;;;;;;5054574;28;20491;-77
2021/01/09 10:31:30;;;;;;;8.80;7.07;;;1.10;70.00;;;;;;5047139;28;20500;-77
2021/01/09 10:33:56;;;;;;;12.00;8.97;;;1.10;69.30;;;;;;5058315;28;20565;-76
2021/01/09 10:36:29;;;;;;;9.33;7.40;;;1.60;69.70;;;;;;5050532;28;20462;-77
2021/01/09 10:38:56;;;;;;;10.00;7.73;;;1.70;69.40;;;;;;5059050;28;20463;-77
2021/01/09 10:41:23;;;;;;;9.70;7.50;;;1.70;69.00;;;;;;5045602;28;20446;-78
2021/01/09 10:43:49;;;;;;;10.27;7.70;;;1.80;68.60;;;;;;5052851;28;20549;-78
2021/01/09 10:46:20;;;;;;;9.00;7.40;;;1.70;68.30;;;;;;5055324;28;20451;-77
2021/01/09 10:48:47;;;;;;;10.10;8.20;;;1.60;68.00;;;;;;5051534;28;20455;-77
2021/01/09 10:51:22;;;;;;;9.67;7.40;;;1.70;67.80;;;;;;5050214;28;20692;-77
2021/01/09 10:53:52;;;;;;;10.33;7.53;;;1.80;68.00;;;;;;5051004;28;20479;-77
2021/01/09 10:56:19;;;;;;;9.33;7.37;;;1.60;67.20;;;;;;5046766;28;20468;-76
2021/01/09 10:58:46;;;;;;;9.77;6.97;;;1.50;67.40;;;;;;5046375;28;20472;-78
2021/01/09 11:01:15;;;;;;;11.20;7.53;;;1.70;67.70;;;;;;5039331;28;20462;-77
2021/01/09 11:03:44;;;;;;;10.27;8.23;;;1.70;67.60;;;;;;5050354;28;20442;-77
2021/01/09 11:06:20;;;;;;;10.70;7.80;;;1.70;67.60;;;;;;5045532;28;20447;-77
2021/01/09 11:08:46;;;;;;;10.67;8.40;;;1.90;66.80;;;;;;5046876;28;20543;-78
2021/01/09 11:11:14;;;;;;;10.30;7.80;;;2.20;67.10;;;;;;5051872;28;20459;-78
2021/01/09 11:13:43;;;;;;;9.40;7.33;;;2.60;66.40;;;;;;5058362;28;20480;-79
2021/01/09 11:16:09;;;;;;;10.23;8.57;;;2.50;66.10;;;;;;5050583;28;20450;-79
2021/01/09 11:18:35;;;;;;;11.60;8.97;;;2.30;65.60;;;;;;5057647;28;21144;-79
2021/01/09 11:21:02;;;;;;;14.60;8.87;;;2.30;66.10;;;;;;5061264;28;20467;-77
2021/01/09 11:23:30;;;;;;;11.60;7.93;;;2.40;65.80;;;;;;5064458;28;20517;-79
2021/01/09 11:25:57;;;;;;;10.83;8.57;;;2.40;66.30;;;;;;5057560;28;20447;-78
2021/01/09 11:28:24;;;;;;;7.30;6.40;;;1.90;66.50;;;;;;5058381;28;20440;-78
2021/01/09 11:30:51;;;;;;;7.87;6.57;;;1.50;65.60;;;;;;5051343;28;20459;-79
2021/01/09 11:33:18;;;;;;;8.73;7.03;;;1.70;65.50;;;;;;5049953;28;20850;-78
2021/01/09 11:35:45;;;;;;;7.47;6.27;;;1.60;65.30;;;;;;5060180;28;21116;-79
2021/01/09 11:38:11;;;;;;;8.83;6.70;;;1.90;64.40;;;;;;5058397;28;20453;-80
2021/01/09 11:40:38;;;;;;;11.20;6.90;;;2.00;64.60;;;;;;5051570;28;20479;-77
2021/01/09 11:43:04;;;;;;;10.77;7.20;;;2.40;64.60;;;;;;5050345;28;20838;-79
2021/01/09 11:45:32;;;;;;;9.63;7.30;;;2.20;64.00;;;;;;5051586;28;20451;-78
2021/01/09 11:47:58;;;;;;;8.93;7.17;;;2.40;64.60;;;;;;5055922;28;20482;-80
2021/01/09 11:50:25;;;;;;;9.17;7.53;;;2.00;65.00;;;;;;5052800;28;20505;-78
2021/01/09 11:52:51;;;;;;;10.50;8.00;;;2.10;65.30;;;;;;5053860;28;20554;-80
2021/01/09 11:55:21;;;;;;;8.77;7.50;;;1.90;64.60;;;;;;5073983;28;20511;-81
2021/01/09 11:57:47;;;;;;;11.13;8.10;;;1.80;65.00;;;;;;5062829;28;20464;-77
2021/01/09 12:00:15;;;;;;;11.00;7.97;;;1.70;65.30;;;;;;5058310;28;20443;-83
2021/01/09 12:02:43;;;;;;;12.80;8.67;;;1.80;66.00;;;;;;5061193;28;20472;-79
2021/01/09 12:05:12;;;;;;;6.70;5.97;;;2.10;65.80;;;;;;5060768;28;20450;-80
2021/01/09 12:07:39;;;;;;;9.23;6.70;;;2.00;64.50;;;;;;5058689;28;20440;-80
2021/01/09 12:10:09;;;;;;;8.07;6.23;;;1.70;63.60;;;;;;5059250;28;20935;-81
2021/01/09 12:12:36;;;;;;;10.10;7.20;;;2.20;63.60;;;;;;5055781;28;20479;-82
2021/01/09 12:15:05;;;;;;;9.17;6.33;;;2.50;63.70;;;;;;5055716;28;20485;-79
2021/01/09 12:17:33;;;;;;;8.60;7.03;;;2.20;63.70;;;;;;5060064;28;20501;-82
2021/01/09 12:20:01;;;;;;;8.33;6.30;;;2.30;63.60;;;;;;5053408;28;20462;-78
2021/01/09 12:22:28;;;;;;;7.00;6.30;;;2.00;62.80;;;;;;5057212;28;20440;-78
2021/01/09 12:24:55;;;;;;;10.27;7.93;;;2.00;63.30;;;;;;5057641;28;20444;-84
2021/01/09 12:27:24;;;;;;;8.10;7.17;;;1.80;64.10;;;;;;5066013;28;20478;-78
2021/01/09 12:29:50;;;;;;;8.30;6.83;;;1.80;63.70;;;;;;5059975;28;20476;-86
2021/01/09 12:32:18;;;;;;;10.10;7.17;;;2.00;64.10;;;;;;5062115;28;20466;-84
2021/01/09 12:34:45;;;;;;;11.13;8.10;;;1.60;63.70;;;;;;5059457;28;20467;-83
2021/01/09 12:37:12;;;;;;;8.90;6.43;;;1.60;64.20;;;;;;5063433;28;20554;-83
2021/01/09 12:39:40;;;;;;;8.17;6.60;;;1.60;64.40;;;;;;5061614;28;20471;-83
2021/01/09 12:42:08;;;;;;;8.90;6.90;;;1.70;64.20;;;;;;5041074;28;20459;-82
2021/01/09 12:44:35;;;;;;;8.13;6.63;;;1.50;64.00;;;;;;5059060;28;20452;-82
2021/01/09 12:47:02;;;;;;;10.97;7.73;;;1.70;64.30;;;;;;5043264;28;20479;-82
2021/01/09 12:49:28;;;;;;;10.40;7.87;;;1.70;64.00;;;;;;5055461;28;20451;-81